sensor_id;sensor_type;location;lat;lon;timestamp;P1;durP1;ratioP1;P2;durP2;ratioP2
5710;SDS011;61291;52.524;13.422;2023-07-16T00:00:06;68.10;;;63.67;;
5710;SDS011;61291;52.524;13.422;2023-07-16T00:02:33;62.27;;;57.97;;
5710;SDS011;61291;52.524;13.422;2023-07-16T00:04:59;64.17;;;59.90;;
5710;SDS011;61291;52.524;13.422;2023-07-16T00:07:25;61.50;;;57.20;;
5710;SDS011;61291;52.524;13.422;2023-07-16T00:09:51;61.30;;;57.20;;
5710;SDS011;61291;52.524;13.422;2023-07-16T00:12:16;64.30;;;59.80;;
5710;SDS011;61291;52.524;13.422;2023-07-16T00:14:42;62.07;;;58.00;;
5710;SDS011;61291;52.524;13.422;2023-07-16T00:17:07;63.17;;;58.57;;
5710;SDS011;61291;52.524;13.422;2023-07-16T00:19:33;63.27;;;59.30;;
5710;SDS011;61291;52.524;13.422;2023-07-16T00:21:58;62.70;;;58.70;;
5710;SDS011;61291;52.524;13.422;2023-07-16T00:24:24;61.37;;;57.17;;
5710;SDS011;61291;52.524;13.422;2023-07-16T00:26:49;62.30;;;58.30;;
5710;SDS011;61291;52.524;13.422;2023-07-16T00:29:15;63.03;;;59.03;;
5710;SDS011;61291;52.524;13.422;2023-07-16T00:31:40;61.30;;;57.50;;
5710;SDS011;61291;52.524;13.422;2023-07-16T00:34:05;62.67;;;58.60;;
5710;SDS011;61291;52.524;13.422;2023-07-16T00:36:31;62.30;;;58.30;;
5710;SDS011;61291;52.524;13.422;2023-07-16T00:38:56;67.67;;;63.17;;
5710;SDS011;61291;52.524;13.422;2023-07-16T00:41:22;62.60;;;58.40;;
5710;SDS011;61291;52.524;13.422;2023-07-16T00:43:47;63.13;;;59.07;;
5710;SDS011;61291;52.524;13.422;2023-07-16T00:46:13;65.43;;;61.13;;
5710;SDS011;61291;52.524;13.422;2023-07-16T00:48:39;65.13;;;61.03;;
5710;SDS011;61291;52.524;13.422;2023-07-16T00:51:06;67.57;;;63.17;;
5710;SDS011;61291;52.524;13.422;2023-07-16T00:53:32;64.60;;;60.30;;
5710;SDS011;61291;52.524;13.422;2023-07-16T00:55:58;66.00;;;60.97;;
5710;SDS011;61291;52.524;13.422;2023-07-16T00:58:24;68.30;;;63.67;;
5710;SDS011;61291;52.524;13.422;2023-07-16T01:00:49;70.33;;;65.23;;
5710;SDS011;61291;52.524;13.422;2023-07-16T01:03:15;65.50;;;61.42;;
5710;SDS011;61291;52.524;13.422;2023-07-16T01:05:58;68.03;;;62.90;;
5710;SDS011;61291;52.524;13.422;2023-07-16T01:08:32;67.47;;;62.77;;
5710;SDS011;61291;52.524;13.422;2023-07-16T01:11:11;61.37;;;56.70;;
5710;SDS011;61291;52.524;13.422;2023-07-16T01:13:37;67.20;;;62.80;;
5710;SDS011;61291;52.524;13.422;2023-07-16T01:16:03;63.43;;;59.43;;
5710;SDS011;61291;52.524;13.422;2023-07-16T01:18:29;62.93;;;58.83;;
5710;SDS011;61291;52.524;13.422;2023-07-16T01:20:55;62.63;;;58.53;;
5710;SDS011;61291;52.524;13.422;2023-07-16T01:23:33;59.80;;;55.70;;
5710;SDS011;61291;52.524;13.422;2023-07-16T01:26:05;62.93;;;58.83;;
5710;SDS011;61291;52.524;13.422;2023-07-16T01:31:21;61.33;;;57.37;;
5710;SDS011;61291;52.524;13.422;2023-07-16T01:33:47;61.67;;;57.13;;
5710;SDS011;61291;52.524;13.422;2023-07-16T01:36:16;67.43;;;62.63;;
5710;SDS011;61291;52.524;13.422;2023-07-16T01:38:43;65.90;;;61.07;;
5710;SDS011;61291;52.524;13.422;2023-07-16T01:41:09;59.93;;;56.03;;
5710;SDS011;61291;52.524;13.422;2023-07-16T01:43:35;66.33;;;62.03;;
5710;SDS011;61291;52.524;13.422;2023-07-16T01:46:01;62.53;;;58.23;;
5710;SDS011;61291;52.524;13.422;2023-07-16T01:48:30;59.47;;;55.43;;
5710;SDS011;61291;52.524;13.422;2023-07-16T01:50:58;62.53;;;58.23;;
5710;SDS011;61291;52.524;13.422;2023-07-16T01:53:24;64.40;;;59.60;;
5710;SDS011;61291;52.524;13.422;2023-07-16T01:55:49;61.83;;;57.63;;
5710;SDS011;61291;52.524;13.422;2023-07-16T01:58:15;67.63;;;63.20;;
5710;SDS011;61291;52.524;13.422;2023-07-16T02:00:41;67.50;;;62.80;;
5710;SDS011;61291;52.524;13.422;2023-07-16T02:03:07;64.23;;;60.13;;
5710;SDS011;61291;52.524;13.422;2023-07-16T02:05:32;63.07;;;58.60;;
5710;SDS011;61291;52.524;13.422;2023-07-16T02:07:58;63.77;;;59.57;;
5710;SDS011;61291;52.524;13.422;2023-07-16T02:10:23;60.60;;;56.80;;
5710;SDS011;61291;52.524;13.422;2023-07-16T02:12:49;62.90;;;58.00;;
5710;SDS011;61291;52.524;13.422;2023-07-16T02:15:14;63.97;;;59.33;;
5710;SDS011;61291;52.524;13.422;2023-07-16T02:17:40;61.47;;;57.57;;
5710;SDS011;61291;52.524;13.422;2023-07-16T02:20:06;62.13;;;58.23;;
5710;SDS011;61291;52.524;13.422;2023-07-16T02:22:33;60.83;;;56.60;;
5710;SDS011;61291;52.524;13.422;2023-07-16T02:25:00;63.57;;;59.07;;
5710;SDS011;61291;52.524;13.422;2023-07-16T02:27:25;63.53;;;59.33;;
5710;SDS011;61291;52.524;13.422;2023-07-16T02:29:51;64.43;;;60.33;;
5710;SDS011;61291;52.524;13.422;2023-07-16T02:32:16;66.67;;;62.17;;
5710;SDS011;61291;52.524;13.422;2023-07-16T02:34:42;67.60;;;63.10;;
5710;SDS011;61291;52.524;13.422;2023-07-16T02:37:07;69.50;;;64.80;;
5710;SDS011;61291;52.524;13.422;2023-07-16T02:39:33;71.97;;;67.17;;
5710;SDS011;61291;52.524;13.422;2023-07-16T02:41:58;63.50;;;59.10;;
5710;SDS011;61291;52.524;13.422;2023-07-16T02:44:24;73.10;;;67.87;;
5710;SDS011;61291;52.524;13.422;2023-07-16T02:46:49;76.13;;;71.33;;
5710;SDS011;61291;52.524;13.422;2023-07-16T02:49:15;76.40;;;71.43;;
5710;SDS011;61291;52.524;13.422;2023-07-16T02:51:41;78.13;;;73.20;;
5710;SDS011;61291;52.524;13.422;2023-07-16T02:54:07;79.47;;;74.27;;
5710;SDS011;61291;52.524;13.422;2023-07-16T02:56:32;84.33;;;78.67;;
5710;SDS011;61291;52.524;13.422;2023-07-16T02:58:58;82.77;;;77.67;;
5710;SDS011;61291;52.524;13.422;2023-07-16T03:01:23;80.07;;;74.97;;
5710;SDS011;61291;52.524;13.422;2023-07-16T03:03:49;80.57;;;74.47;;
5710;SDS011;61291;52.524;13.422;2023-07-16T03:06:14;78.93;;;73.60;;
5710;SDS011;61291;52.524;13.422;2023-07-16T03:08:40;82.20;;;76.53;;
5710;SDS011;61291;52.524;13.422;2023-07-16T03:11:06;82.93;;;77.53;;
5710;SDS011;61291;52.524;13.422;2023-07-16T03:13:31;85.80;;;80.03;;
5710;SDS011;61291;52.524;13.422;2023-07-16T03:15:57;87.80;;;81.97;;
5710;SDS011;61291;52.524;13.422;2023-07-16T03:18:27;80.07;;;73.93;;
5710;SDS011;61291;52.524;13.422;2023-07-16T03:20:54;91.37;;;85.17;;
5710;SDS011;61291;52.524;13.422;2023-07-16T03:23:19;87.63;;;81.83;;
5710;SDS011;61291;52.524;13.422;2023-07-16T03:25:45;94.07;;;87.87;;
5710;SDS011;61291;52.524;13.422;2023-07-16T03:28:10;98.37;;;92.40;;
5710;SDS011;61291;52.524;13.422;2023-07-16T03:30:36;97.83;;;91.43;;
5710;SDS011;61291;52.524;13.422;2023-07-16T03:33:02;90.13;;;84.13;;
5710;SDS011;61291;52.524;13.422;2023-07-16T03:35:28;90.53;;;84.30;;
5710;SDS011;61291;52.524;13.422;2023-07-16T03:37:54;91.07;;;85.30;;
5710;SDS011;61291;52.524;13.422;2023-07-16T03:40:21;92.13;;;85.80;;
5710;SDS011;61291;52.524;13.422;2023-07-16T03:42:51;93.70;;;87.40;;
5710;SDS011;61291;52.524;13.422;2023-07-16T03:45:17;92.50;;;86.50;;
5710;SDS011;61291;52.524;13.422;2023-07-16T03:47:42;89.50;;;83.43;;
5710;SDS011;61291;52.524;13.422;2023-07-16T03:50:08;87.30;;;81.80;;
5710;SDS011;61291;52.524;13.422;2023-07-16T03:52:34;91.23;;;85.40;;
5710;SDS011;61291;52.524;13.422;2023-07-16T03:54:59;90.23;;;84.50;;
5710;SDS011;61291;52.524;13.422;2023-07-16T03:57:26;94.00;;;87.90;;
5710;SDS011;61291;52.524;13.422;2023-07-16T03:59:54;90.47;;;84.87;;
5710;SDS011;61291;52.524;13.422;2023-07-16T04:02:20;90.87;;;85.07;;
5710;SDS011;61291;52.524;13.422;2023-07-16T04:04:45;85.33;;;79.80;;
5710;SDS011;61291;52.524;13.422;2023-07-16T04:07:11;91.57;;;85.90;;
5710;SDS011;61291;52.524;13.422;2023-07-16T04:09:40;94.23;;;88.13;;
5710;SDS011;61291;52.524;13.422;2023-07-16T04:12:06;88.77;;;82.87;;
5710;SDS011;61291;52.524;13.422;2023-07-16T04:14:32;89.47;;;83.67;;
5710;SDS011;61291;52.524;13.422;2023-07-16T04:16:58;92.47;;;86.40;;
5710;SDS011;61291;52.524;13.422;2023-07-16T04:19:23;89.63;;;83.20;;
5710;SDS011;61291;52.524;13.422;2023-07-16T04:21:49;87.33;;;81.73;;
5710;SDS011;61291;52.524;13.422;2023-07-16T04:24:14;85.17;;;79.87;;
5710;SDS011;61291;52.524;13.422;2023-07-16T04:26:39;87.10;;;81.27;;
5710;SDS011;61291;52.524;13.422;2023-07-16T04:29:05;78.10;;;73.00;;
5710;SDS011;61291;52.524;13.422;2023-07-16T04:31:30;84.97;;;79.77;;
5710;SDS011;61291;52.524;13.422;2023-07-16T04:33:56;96.13;;;90.33;;
5710;SDS011;61291;52.524;13.422;2023-07-16T04:36:21;85.83;;;80.10;;
5710;SDS011;61291;52.524;13.422;2023-07-16T04:38:47;80.67;;;75.47;;
5710;SDS011;61291;52.524;13.422;2023-07-16T04:41:12;84.53;;;79.33;;
5710;SDS011;61291;52.524;13.422;2023-07-16T04:43:38;82.20;;;76.70;;
5710;SDS011;61291;52.524;13.422;2023-07-16T04:46:04;81.03;;;75.83;;
5710;SDS011;61291;52.524;13.422;2023-07-16T04:48:29;79.50;;;74.20;;
5710;SDS011;61291;52.524;13.422;2023-07-16T04:50:55;81.07;;;75.87;;
5710;SDS011;61291;52.524;13.422;2023-07-16T04:53:21;80.83;;;75.73;;
5710;SDS011;61291;52.524;13.422;2023-07-16T04:55:47;77.53;;;72.43;;
5710;SDS011;61291;52.524;13.422;2023-07-16T04:58:13;85.13;;;79.83;;
5710;SDS011;61291;52.524;13.422;2023-07-16T05:00:39;84.10;;;78.73;;
5710;SDS011;61291;52.524;13.422;2023-07-16T05:03:05;84.87;;;79.43;;
5710;SDS011;61291;52.524;13.422;2023-07-16T05:05:30;75.40;;;70.40;;
5710;SDS011;61291;52.524;13.422;2023-07-16T05:07:56;82.53;;;77.13;;
5710;SDS011;61291;52.524;13.422;2023-07-16T05:10:21;83.60;;;78.10;;
5710;SDS011;61291;52.524;13.422;2023-07-16T05:12:47;83.83;;;78.53;;
5710;SDS011;61291;52.524;13.422;2023-07-16T05:15:12;81.32;;;76.03;;
5710;SDS011;61291;52.524;13.422;2023-07-16T05:17:38;75.30;;;70.40;;
5710;SDS011;61291;52.524;13.422;2023-07-16T05:20:04;78.90;;;73.47;;
5710;SDS011;61291;52.524;13.422;2023-07-16T05:22:30;78.20;;;72.87;;
5710;SDS011;61291;52.524;13.422;2023-07-16T05:24:56;82.70;;;77.40;;
5710;SDS011;61291;52.524;13.422;2023-07-16T05:27:21;81.63;;;75.87;;
5710;SDS011;61291;52.524;13.422;2023-07-16T05:29:47;78.77;;;73.80;;
5710;SDS011;61291;52.524;13.422;2023-07-16T05:32:13;78.03;;;73.03;;
5710;SDS011;61291;52.524;13.422;2023-07-16T05:34:38;77.20;;;72.20;;
5710;SDS011;61291;52.524;13.422;2023-07-16T05:37:04;70.13;;;65.37;;
5710;SDS011;61291;52.524;13.422;2023-07-16T05:39:30;67.73;;;63.00;;
5710;SDS011;61291;52.524;13.422;2023-07-16T05:41:55;61.87;;;57.33;;
5710;SDS011;61291;52.524;13.422;2023-07-16T05:44:21;61.47;;;57.37;;
5710;SDS011;61291;52.524;13.422;2023-07-16T05:46:46;59.17;;;55.07;;
5710;SDS011;61291;52.524;13.422;2023-07-16T05:49:12;63.57;;;59.47;;
5710;SDS011;61291;52.524;13.422;2023-07-16T05:51:38;62.90;;;58.57;;
5710;SDS011;61291;52.524;13.422;2023-07-16T05:54:03;59.53;;;55.67;;
5710;SDS011;61291;52.524;13.422;2023-07-16T05:56:29;59.03;;;54.90;;
5710;SDS011;61291;52.524;13.422;2023-07-16T05:58:54;58.90;;;54.57;;
5710;SDS011;61291;52.524;13.422;2023-07-16T06:01:21;59.60;;;55.50;;
5710;SDS011;61291;52.524;13.422;2023-07-16T06:03:46;60.03;;;55.93;;
5710;SDS011;61291;52.524;13.422;2023-07-16T06:06:12;62.47;;;58.23;;
5710;SDS011;61291;52.524;13.422;2023-07-16T06:08:37;62.83;;;58.43;;
5710;SDS011;61291;52.524;13.422;2023-07-16T06:11:03;57.13;;;52.83;;
5710;SDS011;61291;52.524;13.422;2023-07-16T06:13:29;64.93;;;60.17;;
5710;SDS011;61291;52.524;13.422;2023-07-16T06:15:54;63.40;;;59.30;;
5710;SDS011;61291;52.524;13.422;2023-07-16T06:18:20;62.20;;;58.07;;
5710;SDS011;61291;52.524;13.422;2023-07-16T06:20:45;63.17;;;58.67;;
5710;SDS011;61291;52.524;13.422;2023-07-16T06:23:11;57.67;;;53.77;;
5710;SDS011;61291;52.524;13.422;2023-07-16T06:25:37;59.03;;;55.03;;
5710;SDS011;61291;52.524;13.422;2023-07-16T06:28:05;58.43;;;54.47;;
5710;SDS011;61291;52.524;13.422;2023-07-16T06:30:31;60.40;;;56.10;;
5710;SDS011;61291;52.524;13.422;2023-07-16T06:32:57;63.00;;;58.83;;
5710;SDS011;61291;52.524;13.422;2023-07-16T06:35:23;57.57;;;53.67;;
5710;SDS011;61291;52.524;13.422;2023-07-16T06:37:49;58.80;;;54.80;;
5710;SDS011;61291;52.524;13.422;2023-07-16T06:40:14;62.30;;;57.50;;
5710;SDS011;61291;52.524;13.422;2023-07-16T06:42:40;58.53;;;54.50;;
5710;SDS011;61291;52.524;13.422;2023-07-16T06:45:06;58.83;;;54.70;;
5710;SDS011;61291;52.524;13.422;2023-07-16T06:47:32;59.07;;;54.70;;
5710;SDS011;61291;52.524;13.422;2023-07-16T06:49:57;59.00;;;54.20;;
5710;SDS011;61291;52.524;13.422;2023-07-16T06:52:23;58.27;;;54.23;;
5710;SDS011;61291;52.524;13.422;2023-07-16T06:54:55;55.30;;;51.50;;
5710;SDS011;61291;52.524;13.422;2023-07-16T06:57:21;56.67;;;52.87;;
5710;SDS011;61291;52.524;13.422;2023-07-16T06:59:50;58.13;;;53.77;;
5710;SDS011;61291;52.524;13.422;2023-07-16T07:02:16;56.60;;;52.60;;
5710;SDS011;61291;52.524;13.422;2023-07-16T07:04:42;61.53;;;57.37;;
5710;SDS011;61291;52.524;13.422;2023-07-16T07:07:08;59.50;;;55.30;;
5710;SDS011;61291;52.524;13.422;2023-07-16T07:09:34;55.63;;;51.93;;
5710;SDS011;61291;52.524;13.422;2023-07-16T07:11:59;62.40;;;58.30;;
5710;SDS011;61291;52.524;13.422;2023-07-16T07:14:25;61.20;;;56.87;;
5710;SDS011;61291;52.524;13.422;2023-07-16T07:16:50;65.87;;;61.53;;
5710;SDS011;61291;52.524;13.422;2023-07-16T07:19:16;60.93;;;56.83;;
5710;SDS011;61291;52.524;13.422;2023-07-16T07:21:41;55.17;;;51.57;;
5710;SDS011;61291;52.524;13.422;2023-07-16T07:24:07;57.97;;;54.07;;
5710;SDS011;61291;52.524;13.422;2023-07-16T07:26:32;62.67;;;58.40;;
5710;SDS011;61291;52.524;13.422;2023-07-16T07:28:58;50.70;;;47.40;;
5710;SDS011;61291;52.524;13.422;2023-07-16T07:31:23;59.47;;;55.27;;
5710;SDS011;61291;52.524;13.422;2023-07-16T07:33:49;56.07;;;52.27;;
5710;SDS011;61291;52.524;13.422;2023-07-16T07:36:14;55.57;;;51.47;;
5710;SDS011;61291;52.524;13.422;2023-07-16T07:38:40;63.90;;;59.27;;
5710;SDS011;61291;52.524;13.422;2023-07-16T07:41:06;57.00;;;53.23;;
5710;SDS011;61291;52.524;13.422;2023-07-16T07:43:31;62.63;;;58.13;;
5710;SDS011;61291;52.524;13.422;2023-07-16T07:45:57;67.07;;;62.50;;
5710;SDS011;61291;52.524;13.422;2023-07-16T07:48:22;67.83;;;63.33;;
5710;SDS011;61291;52.524;13.422;2023-07-16T07:50:48;61.40;;;57.50;;
5710;SDS011;61291;52.524;13.422;2023-07-16T07:53:13;58.43;;;54.43;;
5710;SDS011;61291;52.524;13.422;2023-07-16T07:55:43;62.63;;;57.33;;
5710;SDS011;61291;52.524;13.422;2023-07-16T07:58:09;63.60;;;59.50;;
5710;SDS011;61291;52.524;13.422;2023-07-16T08:00:35;57.00;;;53.30;;
5710;SDS011;61291;52.524;13.422;2023-07-16T08:03:00;77.63;;;72.60;;
5710;SDS011;61291;52.524;13.422;2023-07-16T08:05:26;70.97;;;66.20;;
5710;SDS011;61291;52.524;13.422;2023-07-16T08:07:52;65.40;;;61.07;;
5710;SDS011;61291;52.524;13.422;2023-07-16T08:10:18;68.33;;;63.63;;
5710;SDS011;61291;52.524;13.422;2023-07-16T08:12:44;60.53;;;56.57;;
5710;SDS011;61291;52.524;13.422;2023-07-16T08:15:10;59.20;;;55.30;;
5710;SDS011;61291;52.524;13.422;2023-07-16T08:17:40;56.50;;;52.80;;
5710;SDS011;61291;52.524;13.422;2023-07-16T08:20:06;57.10;;;53.03;;
5710;SDS011;61291;52.524;13.422;2023-07-16T08:22:32;58.60;;;54.90;;
5710;SDS011;61291;52.524;13.422;2023-07-16T08:24:58;59.60;;;55.20;;
5710;SDS011;61291;52.524;13.422;2023-07-16T08:27:23;62.60;;;58.50;;
5710;SDS011;61291;52.524;13.422;2023-07-16T08:29:49;62.17;;;57.37;;
5710;SDS011;61291;52.524;13.422;2023-07-16T08:32:14;72.27;;;67.23;;
5710;SDS011;61291;52.524;13.422;2023-07-16T08:34:40;77.40;;;72.03;;
5710;SDS011;61291;52.524;13.422;2023-07-16T08:37:05;74.93;;;70.13;;
5710;SDS011;61291;52.524;13.422;2023-07-16T08:39:31;58.30;;;54.25;;
5710;SDS011;61291;52.524;13.422;2023-07-16T08:41:56;75.30;;;70.23;;
5710;SDS011;61291;52.524;13.422;2023-07-16T08:44:22;67.50;;;62.83;;
5710;SDS011;61291;52.524;13.422;2023-07-16T08:46:48;76.20;;;71.30;;
5710;SDS011;61291;52.524;13.422;2023-07-16T08:49:15;59.70;;;55.40;;
5710;SDS011;61291;52.524;13.422;2023-07-16T08:51:43;69.60;;;64.97;;
5710;SDS011;61291;52.524;13.422;2023-07-16T08:54:12;75.50;;;70.67;;
5710;SDS011;61291;52.524;13.422;2023-07-16T08:56:40;67.93;;;63.67;;
5710;SDS011;61291;52.524;13.422;2023-07-16T08:59:06;71.63;;;67.10;;
5710;SDS011;61291;52.524;13.422;2023-07-16T09:01:33;73.77;;;68.47;;
5710;SDS011;61291;52.524;13.422;2023-07-16T09:03:58;71.27;;;66.23;;
5710;SDS011;61291;52.524;13.422;2023-07-16T09:06:25;76.67;;;71.63;;
5710;SDS011;61291;52.524;13.422;2023-07-16T09:08:51;65.87;;;61.47;;
5710;SDS011;61291;52.524;13.422;2023-07-16T09:11:17;72.90;;;68.13;;
5710;SDS011;61291;52.524;13.422;2023-07-16T09:13:46;69.53;;;64.87;;
5710;SDS011;61291;52.524;13.422;2023-07-16T09:16:12;66.47;;;62.00;;
5710;SDS011;61291;52.524;13.422;2023-07-16T09:18:39;65.67;;;61.57;;
5710;SDS011;61291;52.524;13.422;2023-07-16T09:21:05;71.23;;;66.83;;
5710;SDS011;61291;52.524;13.422;2023-07-16T09:23:32;67.37;;;62.90;;
5710;SDS011;61291;52.524;13.422;2023-07-16T09:25:57;66.53;;;61.80;;
5710;SDS011;61291;52.524;13.422;2023-07-16T09:28:23;70.40;;;65.57;;
5710;SDS011;61291;52.524;13.422;2023-07-16T09:30:52;60.80;;;56.80;;
5710;SDS011;61291;52.524;13.422;2023-07-16T09:33:19;70.30;;;65.70;;
5710;SDS011;61291;52.524;13.422;2023-07-16T09:35:49;62.17;;;57.40;;
5710;SDS011;61291;52.524;13.422;2023-07-16T09:38:15;59.93;;;55.83;;
5710;SDS011;61291;52.524;13.422;2023-07-16T09:40:42;62.90;;;58.67;;
5710;SDS011;61291;52.524;13.422;2023-07-16T09:43:08;65.80;;;61.20;;
5710;SDS011;61291;52.524;13.422;2023-07-16T09:45:34;68.70;;;64.40;;
5710;SDS011;61291;52.524;13.422;2023-07-16T09:48:04;66.70;;;62.10;;
5710;SDS011;61291;52.524;13.422;2023-07-16T09:50:31;70.43;;;65.40;;
5710;SDS011;61291;52.524;13.422;2023-07-16T09:52:58;68.57;;;63.97;;
5710;SDS011;61291;52.524;13.422;2023-07-16T09:55:24;62.03;;;56.93;;
5710;SDS011;61291;52.524;13.422;2023-07-16T09:57:53;53.57;;;49.93;;
5710;SDS011;61291;52.524;13.422;2023-07-16T10:00:21;56.67;;;52.90;;
5710;SDS011;61291;52.524;13.422;2023-07-16T10:02:49;62.63;;;58.03;;
5710;SDS011;61291;52.524;13.422;2023-07-16T10:05:17;62.70;;;58.30;;
5710;SDS011;61291;52.524;13.422;2023-07-16T10:07:51;55.80;;;52.23;;
5710;SDS011;61291;52.524;13.422;2023-07-16T10:10:18;58.30;;;54.27;;
5710;SDS011;61291;52.524;13.422;2023-07-16T10:12:54;67.07;;;62.57;;
5710;SDS011;61291;52.524;13.422;2023-07-16T10:15:27;64.17;;;59.77;;
5710;SDS011;61291;52.524;13.422;2023-07-16T10:17:54;66.00;;;61.67;;
5710;SDS011;61291;52.524;13.422;2023-07-16T10:22:59;56.20;;;52.37;;
5710;SDS011;61291;52.524;13.422;2023-07-16T10:25:39;60.33;;;55.83;;
5710;SDS011;61291;52.524;13.422;2023-07-16T10:28:04;64.70;;;60.33;;
5710;SDS011;61291;52.524;13.422;2023-07-16T10:30:31;67.37;;;62.63;;
5710;SDS011;61291;52.524;13.422;2023-07-16T10:32:57;66.37;;;61.73;;
5710;SDS011;61291;52.524;13.422;2023-07-16T10:35:25;66.43;;;61.83;;
5710;SDS011;61291;52.524;13.422;2023-07-16T10:37:51;64.53;;;60.07;;
5710;SDS011;61291;52.524;13.422;2023-07-16T10:40:16;64.60;;;60.20;;
5710;SDS011;61291;52.524;13.422;2023-07-16T10:42:42;58.27;;;54.27;;
5710;SDS011;61291;52.524;13.422;2023-07-16T10:45:08;58.20;;;54.13;;
5710;SDS011;61291;52.524;13.422;2023-07-16T10:47:35;62.57;;;58.13;;
5710;SDS011;61291;52.524;13.422;2023-07-16T10:50:05;61.43;;;57.23;;
5710;SDS011;61291;52.524;13.422;2023-07-16T10:52:33;59.90;;;55.77;;
5710;SDS011;61291;52.524;13.422;2023-07-16T10:54:59;61.27;;;56.83;;
5710;SDS011;61291;52.524;13.422;2023-07-16T10:57:24;65.80;;;61.20;;
5710;SDS011;61291;52.524;13.422;2023-07-16T10:59:51;54.05;;;50.45;;
5710;SDS011;61291;52.524;13.422;2023-07-16T11:02:17;60.70;;;56.40;;
5710;SDS011;61291;52.524;13.422;2023-07-16T11:04:44;69.90;;;65.00;;
5710;SDS011;61291;52.524;13.422;2023-07-16T11:07:11;58.30;;;54.40;;
5710;SDS011;61291;52.524;13.422;2023-07-16T11:09:45;61.00;;;57.10;;
5710;SDS011;61291;52.524;13.422;2023-07-16T11:12:14;68.77;;;63.53;;
5710;SDS011;61291;52.524;13.422;2023-07-16T11:14:44;71.57;;;66.73;;
5710;SDS011;61291;52.524;13.422;2023-07-16T11:17:12;68.67;;;63.87;;
5710;SDS011;61291;52.524;13.422;2023-07-16T11:19:38;58.20;;;54.10;;
5710;SDS011;61291;52.524;13.422;2023-07-16T11:22:05;65.00;;;60.40;;
5710;SDS011;61291;52.524;13.422;2023-07-16T11:27:05;60.67;;;56.10;;
5710;SDS011;61291;52.524;13.422;2023-07-16T11:32:30;56.50;;;52.50;;
5710;SDS011;61291;52.524;13.422;2023-07-16T11:34:58;53.90;;;50.17;;
5710;SDS011;61291;52.524;13.422;2023-07-16T11:37:24;56.87;;;53.07;;
5710;SDS011;61291;52.524;13.422;2023-07-16T11:39:54;54.67;;;50.77;;
5710;SDS011;61291;52.524;13.422;2023-07-16T11:42:31;68.10;;;63.50;;
5710;SDS011;61291;52.524;13.422;2023-07-16T11:45:05;65.97;;;61.13;;
5710;SDS011;61291;52.524;13.422;2023-07-16T11:47:40;65.20;;;60.60;;
5710;SDS011;61291;52.524;13.422;2023-07-16T11:50:06;64.40;;;59.90;;
5710;SDS011;61291;52.524;13.422;2023-07-16T11:52:32;67.63;;;63.03;;
5710;SDS011;61291;52.524;13.422;2023-07-16T11:54:59;64.97;;;60.47;;
5710;SDS011;61291;52.524;13.422;2023-07-16T11:57:25;69.90;;;65.20;;
5710;SDS011;61291;52.524;13.422;2023-07-16T11:59:50;65.37;;;60.77;;
5710;SDS011;61291;52.524;13.422;2023-07-16T12:02:16;68.97;;;63.23;;
5710;SDS011;61291;52.524;13.422;2023-07-16T12:04:41;51.87;;;48.20;;
5710;SDS011;61291;52.524;13.422;2023-07-16T12:07:07;61.10;;;57.00;;
5710;SDS011;61291;52.524;13.422;2023-07-16T12:09:33;57.37;;;53.63;;
5710;SDS011;61291;52.524;13.422;2023-07-16T12:11:59;58.43;;;54.47;;
5710;SDS011;61291;52.524;13.422;2023-07-16T12:14:25;67.37;;;62.80;;
5710;SDS011;61291;52.524;13.422;2023-07-16T12:16:51;65.30;;;60.30;;
5710;SDS011;61291;52.524;13.422;2023-07-16T12:19:17;73.57;;;68.43;;
5710;SDS011;61291;52.524;13.422;2023-07-16T12:21:43;63.80;;;58.97;;
5710;SDS011;61291;52.524;13.422;2023-07-16T12:24:08;60.33;;;56.13;;
5710;SDS011;61291;52.524;13.422;2023-07-16T12:26:34;54.37;;;50.37;;
5710;SDS011;61291;52.524;13.422;2023-07-16T12:29:00;59.67;;;55.57;;
5710;SDS011;61291;52.524;13.422;2023-07-16T12:31:31;60.73;;;56.83;;
5710;SDS011;61291;52.524;13.422;2023-07-16T12:33:58;61.03;;;56.93;;
5710;SDS011;61291;52.524;13.422;2023-07-16T12:36:24;68.17;;;63.53;;
5710;SDS011;61291;52.524;13.422;2023-07-16T12:38:50;64.97;;;60.60;;
5710;SDS011;61291;52.524;13.422;2023-07-16T12:41:15;74.80;;;69.70;;
5710;SDS011;61291;52.524;13.422;2023-07-16T12:43:41;57.73;;;53.90;;
5710;SDS011;61291;52.524;13.422;2023-07-16T12:46:07;72.80;;;67.50;;
5710;SDS011;61291;52.524;13.422;2023-07-16T12:48:33;76.63;;;71.03;;
5710;SDS011;61291;52.524;13.422;2023-07-16T12:50:59;71.87;;;66.87;;
5710;SDS011;61291;52.524;13.422;2023-07-16T12:53:25;69.33;;;64.40;;
5710;SDS011;61291;52.524;13.422;2023-07-16T12:55:51;64.63;;;60.07;;
5710;SDS011;61291;52.524;13.422;2023-07-16T12:58:17;72.47;;;67.33;;
5710;SDS011;61291;52.524;13.422;2023-07-16T13:00:43;72.37;;;67.57;;
5710;SDS011;61291;52.524;13.422;2023-07-16T13:03:08;73.37;;;68.37;;
5710;SDS011;61291;52.524;13.422;2023-07-16T13:05:37;72.00;;;66.80;;
5710;SDS011;61291;52.524;13.422;2023-07-16T13:08:03;71.83;;;66.63;;
5710;SDS011;61291;52.524;13.422;2023-07-16T13:10:28;71.60;;;66.80;;
5710;SDS011;61291;52.524;13.422;2023-07-16T13:12:54;64.47;;;59.97;;
5710;SDS011;61291;52.524;13.422;2023-07-16T13:15:19;64.67;;;59.17;;
5710;SDS011;61291;52.524;13.422;2023-07-16T13:17:45;60.93;;;56.60;;
5710;SDS011;61291;52.524;13.422;2023-07-16T13:20:12;61.67;;;57.43;;
5710;SDS011;61291;52.524;13.422;2023-07-16T13:22:37;66.60;;;62.10;;
5710;SDS011;61291;52.524;13.422;2023-07-16T13:25:03;54.63;;;50.70;;
5710;SDS011;61291;52.524;13.422;2023-07-16T13:27:29;56.90;;;53.10;;
5710;SDS011;61291;52.524;13.422;2023-07-16T13:29:54;60.57;;;56.13;;
5710;SDS011;61291;52.524;13.422;2023-07-16T13:32:20;63.20;;;58.67;;
5710;SDS011;61291;52.524;13.422;2023-07-16T13:34:45;66.03;;;61.83;;
5710;SDS011;61291;52.524;13.422;2023-07-16T13:37:11;67.50;;;62.23;;
5710;SDS011;61291;52.524;13.422;2023-07-16T13:39:36;60.67;;;56.77;;
5710;SDS011;61291;52.524;13.422;2023-07-16T13:42:02;73.57;;;68.07;;
5710;SDS011;61291;52.524;13.422;2023-07-16T13:44:27;73.30;;;67.30;;
5710;SDS011;61291;52.524;13.422;2023-07-16T13:46:53;74.70;;;69.70;;
5710;SDS011;61291;52.524;13.422;2023-07-16T13:49:18;69.63;;;64.93;;
5710;SDS011;61291;52.524;13.422;2023-07-16T13:51:45;69.53;;;64.80;;
5710;SDS011;61291;52.524;13.422;2023-07-16T13:54:11;69.07;;;64.13;;
5710;SDS011;61291;52.524;13.422;2023-07-16T13:56:37;62.37;;;57.90;;
5710;SDS011;61291;52.524;13.422;2023-07-16T13:59:02;72.53;;;67.47;;
5710;SDS011;61291;52.524;13.422;2023-07-16T14:01:28;58.83;;;54.60;;
5710;SDS011;61291;52.524;13.422;2023-07-16T14:03:54;69.40;;;64.73;;
5710;SDS011;61291;52.524;13.422;2023-07-16T14:06:20;62.03;;;57.63;;
5710;SDS011;61291;52.524;13.422;2023-07-16T14:08:45;58.67;;;54.63;;
5710;SDS011;61291;52.524;13.422;2023-07-16T14:11:11;57.03;;;53.07;;
5710;SDS011;61291;52.524;13.422;2023-07-16T14:13:36;60.60;;;56.53;;
5710;SDS011;61291;52.524;13.422;2023-07-16T14:16:02;62.67;;;58.47;;
5710;SDS011;61291;52.524;13.422;2023-07-16T14:18:28;64.50;;;60.27;;
5710;SDS011;61291;52.524;13.422;2023-07-16T14:20:53;63.07;;;58.40;;
5710;SDS011;61291;52.524;13.422;2023-07-16T14:23:19;63.87;;;59.00;;
5710;SDS011;61291;52.524;13.422;2023-07-16T14:25:44;63.10;;;58.60;;